East Coulee, Canada
Current Conditions -  °F | °C
As of 10:00 PM on Sunday 19 Oct 2014 (Local Time) from CYYC Reporting Station
Few Clouds Few Clouds  
Wind Chill: 54°   Ceiling: Unl
Heat Index: 54°   Visibility: 15mi
Dew Point: 34°   Wind: 5mph
Humidity: 47%   Direction: 210°SSW
Pressure: 29.71"   Gusts: NA
Location:  51.33°N, 112.48°W
Report Text: CYYC 200400Z 21004KT 15SM FEW250 12/01 A2971 RMK CS1 CS TR SLP077 DENSITY ALT 4300FT
Loading
Personal Weather Stations






























Interactive Weather Map
Tropical Storm Tracking
New forecast layout! Learn more

10-Day Weather Forecast

Advertisements
Track Severe Weather on mobile